Time;durP1;ratioP1;P1;durP2;ratioP2;P2;SDS_P1;SDS_P2;PMS_P1;PMS_P2;Temp;Humidity;BMP_temperature;BMP_pressure;BME280_temperature;BME280_humidity;BME280_pressure;Samples;Min_cycle;Max_cycle;Signal;HPM_P1;HPM_P2
2022/01/10 00:01:30;;;;;;;8.93;3.97;;;;;;;;;;4994611;28;20026;-62
2022/01/10 00:03:56;;;;;;;4.80;3.22;;;;;;;;;;4995301;28;20411;-62
2022/01/10 00:06:22;;;;;;;5.63;3.47;;;;;;;;;;4994923;28;20628;-62
2022/01/10 00:08:48;;;;;;;4.55;3.42;;;;;;;;;;4994746;28;20027;-62
2022/01/10 00:11:14;;;;;;;4.85;3.33;;;;;;;;;;4995157;28;20398;-62
2022/01/10 00:13:40;;;;;;;5.80;3.47;;;;;;;;;;4994826;28;20026;-62
2022/01/10 00:16:06;;;;;;;6.05;3.67;;;;;;;;;;4994820;28;20033;-62
2022/01/10 00:18:32;;;;;;;7.22;3.88;;;;;;;;;;4994366;28;20557;-62
2022/01/10 00:20:58;;;;;;;6.97;3.65;;;;;;;;;;4994845;28;20117;-62
2022/01/10 00:23:24;;;;;;;10.52;3.72;;;;;;;;;;4994844;28;20102;-62
2022/01/10 00:25:50;;;;;;;9.05;4.05;;;;;;;;;;4994672;28;20034;-62
2022/01/10 00:28:16;;;;;;;4.85;3.42;;;;;;;;;;4994952;28;20026;-62
2022/01/10 00:30:42;;;;;;;10.52;4.50;;;;;;;;;;4994268;28;20509;-62
2022/01/10 00:33:09;;;;;;;6.32;4.22;;;;;;;;;;4994428;28;20089;-62
2022/01/10 00:35:35;;;;;;;4.50;3.60;;;;;;;;;;4994287;28;20057;-62
2022/01/10 00:38:01;;;;;;;6.78;3.95;;;;;;;;;;4977273;28;20042;-62
2022/01/10 00:40:27;;;;;;;6.88;3.42;;;;;;;;;;4994550;28;20432;-62
2022/01/10 00:42:55;;;;;;;6.03;3.20;;;;;;;;;;4994413;28;20026;-62
2022/01/10 00:45:26;;;;;;;6.88;3.72;;;;;;;;;;4993944;28;20041;-62
2022/01/10 00:47:53;;;;;;;6.53;4.22;;;;;;;;;;4976695;28;20557;-62
2022/01/10 00:50:20;;;;;;;7.03;3.70;;;;;;;;;;4994442;28;20026;-62
2022/01/10 00:52:46;;;;;;;6.70;3.72;;;;;;;;;;4994321;28;20050;-62
2022/01/10 00:55:12;;;;;;;5.20;3.17;;;;;;;;;;4994300;28;20030;-62
2022/01/10 00:57:39;;;;;;;8.02;4.13;;;;;;;;;;4994060;28;20427;-62
2022/01/10 01:00:06;;;;;;;4.47;3.20;;;;;;;;;;4976143;28;20113;-62
2022/01/10 01:02:32;;;;;;;6.72;3.85;;;;;;;;;;4976438;28;20517;-62
2022/01/10 01:05:00;;;;;;;5.72;3.60;;;;;;;;;;4994082;28;20069;-62
2022/01/10 01:07:26;;;;;;;5.95;3.67;;;;;;;;;;4976585;28;20062;-62
2022/01/10 01:10:06;;;;;;;5.13;3.17;;;;;;;;;;4976375;28;20117;-62
2022/01/10 01:13:00;;;;;;;6.28;3.55;;;;;;;;;;4993356;28;20065;-62
2022/01/10 01:18:20;;;;;;;6.70;4.43;;;;;;;;;;4879902;29;20032;-62
2022/01/10 01:24:01;;;;;;;9.10;4.38;;;;;;;;;;4895300;29;20507;-62
2022/01/10 01:26:17;;;;;;;12.57;4.30;;;;;;;;;;4896001;29;20036;-63
2022/01/10 01:28:44;;;;;;;7.85;4.85;;;;;;;;;;4895452;29;20076;-62
2022/01/10 01:31:10;;;;;;;11.93;6.93;;;;;;;;;;4895917;29;20071;-62
2022/01/10 01:33:37;;;;;;;6.38;2.08;;;;;;;;;;4895087;29;20037;-62
2022/01/10 01:36:03;;;;;;;8.73;2.25;;;;;;;;;;4895631;29;20053;-62
2022/01/10 01:38:29;;;;;;;8.55;1.80;;;;;;;;;;4895232;29;20045;-62
2022/01/10 01:41:10;;;;;;;11.23;3.33;;;;;;;;;;4895351;29;20032;-62
2022/01/10 01:43:36;;;;;;;17.40;2.88;;;;;;;;;;4895027;29;20044;-62
2022/01/10 01:46:03;;;;;;;22.60;4.38;;;;;;;;;;4892278;29;20069;-62
2022/01/10 01:48:29;;;;;;;18.65;3.65;;;;;;;;;;4891977;29;20049;-62
2022/01/10 01:50:55;;;;;;;47.47;7.93;;;;;;;;;;4876562;29;20029;-62
2022/01/10 01:53:21;;;;;;;26.42;4.25;;;;;;;;;;4876719;29;20071;-62
2022/01/10 01:55:47;;;;;;;25.75;4.55;;;;;;;;;;4959394;28;20382;-62
2022/01/10 01:58:14;;;;;;;27.35;4.65;;;;;;;;;;4956333;28;20034;-62
2022/01/10 02:00:41;;;;;;;29.60;5.40;;;;;;;;;;4975353;28;20033;-62
2022/01/10 02:03:07;;;;;;;24.50;5.82;;;;;;;;;;4975568;28;20030;-62
2022/01/10 02:05:35;;;;;;;21.90;5.03;;;;;;;;;;4975250;28;20022;-62
2022/01/10 02:08:01;;;;;;;23.20;4.65;;;;;;;;;;4993035;28;20379;-62
2022/01/10 02:10:27;;;;;;;37.53;5.75;;;;;;;;;;4975431;28;20520;-62
2022/01/10 02:12:55;;;;;;;21.83;4.55;;;;;;;;;;4974519;28;20541;-62
2022/01/10 02:15:26;;;;;;;34.08;6.15;;;;;;;;;;4975658;28;20026;-62
2022/01/10 02:17:59;;;;;;;36.35;5.65;;;;;;;;;;4975204;28;20022;-62
2022/01/10 02:20:25;;;;;;;35.05;5.95;;;;;;;;;;4975209;28;20030;-62
2022/01/10 02:22:51;;;;;;;47.80;7.20;;;;;;;;;;4992469;28;20040;-62
2022/01/10 02:25:36;;;;;;;33.45;6.72;;;;;;;;;;4992252;28;20437;-62
2022/01/10 02:28:02;;;;;;;47.88;7.35;;;;;;;;;;4975614;28;20045;-62
2022/01/10 02:30:28;;;;;;;38.90;8.48;;;;;;;;;;4975201;28;20033;-62
2022/01/10 02:32:57;;;;;;;47.63;7.78;;;;;;;;;;4992462;28;20030;-62
2022/01/10 02:35:24;;;;;;;52.88;8.23;;;;;;;;;;4975310;28;20027;-62
2022/01/10 02:37:52;;;;;;;45.95;7.25;;;;;;;;;;4971649;28;20058;-62
2022/01/10 02:40:22;;;;;;;57.75;9.38;;;;;;;;;;4971667;28;20039;-62
2022/01/10 02:42:49;;;;;;;62.97;9.35;;;;;;;;;;4971800;28;20392;-62
2022/01/10 02:45:16;;;;;;;63.42;8.75;;;;;;;;;;4972114;28;20022;-62
2022/01/10 02:47:43;;;;;;;64.07;11.23;;;;;;;;;;4971539;28;20034;-62
2022/01/10 02:50:09;;;;;;;49.90;8.57;;;;;;;;;;4971847;28;20030;-62
2022/01/10 02:52:36;;;;;;;63.75;10.02;;;;;;;;;;4971918;28;20038;-62
2022/01/10 02:55:02;;;;;;;65.10;10.27;;;;;;;;;;4971487;28;20022;-62
2022/01/10 02:57:30;;;;;;;72.97;10.70;;;;;;;;;;4971927;28;20117;-62
2022/01/10 02:59:56;;;;;;;65.90;10.45;;;;;;;;;;4971390;28;20035;-62
2022/01/10 03:02:27;;;;;;;71.25;13.07;;;;;;;;;;4973092;28;20573;-62
2022/01/10 03:04:54;;;;;;;54.38;9.13;;;;;;;;;;4971638;28;20078;-62
2022/01/10 03:07:23;;;;;;;71.18;11.57;;;;;;;;;;4955827;28;20365;-62
2022/01/10 03:09:51;;;;;;;60.95;9.48;;;;;;;;;;4972377;28;20069;-62
2022/01/10 03:12:17;;;;;;;61.08;9.25;;;;;;;;;;4971470;28;20035;-62
2022/01/10 03:14:44;;;;;;;54.95;8.88;;;;;;;;;;4971672;28;20034;-62
2022/01/10 03:17:12;;;;;;;81.40;11.10;;;;;;;;;;4971834;28;20033;-62
2022/01/10 03:19:39;;;;;;;64.00;9.80;;;;;;;;;;4972941;28;20491;-62
2022/01/10 03:22:05;;;;;;;66.85;10.55;;;;;;;;;;4971459;28;20027;-62
2022/01/10 03:24:33;;;;;;;63.72;10.25;;;;;;;;;;4971110;28;20162;-62
2022/01/10 03:26:59;;;;;;;65.20;10.55;;;;;;;;;;4971394;28;20376;-62
2022/01/10 03:29:26;;;;;;;51.53;9.93;;;;;;;;;;4971746;28;20045;-62
2022/01/10 03:31:52;;;;;;;72.13;9.43;;;;;;;;;;4972552;28;20023;-62
2022/01/10 03:34:19;;;;;;;50.90;8.65;;;;;;;;;;4971379;28;20027;-62
2022/01/10 03:36:45;;;;;;;52.85;9.23;;;;;;;;;;4972293;28;20031;-62
2022/01/10 03:39:12;;;;;;;54.28;9.85;;;;;;;;;;4990220;28;20082;-62
2022/01/10 03:41:40;;;;;;;60.83;9.35;;;;;;;;;;4974681;28;20534;-62
2022/01/10 03:44:07;;;;;;;74.35;9.77;;;;;;;;;;4978186;28;20426;-62
2022/01/10 03:46:33;;;;;;;65.88;10.23;;;;;;;;;;4978169;28;20434;-62
2022/01/10 03:49:00;;;;;;;67.72;11.45;;;;;;;;;;4995227;28;20518;-62
2022/01/10 03:51:28;;;;;;;80.78;11.65;;;;;;;;;;4978249;28;20022;-62
2022/01/10 03:53:54;;;;;;;62.33;9.45;;;;;;;;;;4977583;28;20034;-62
2022/01/10 03:56:21;;;;;;;66.22;10.35;;;;;;;;;;4995356;28;20027;-62
2022/01/10 03:58:48;;;;;;;74.63;10.13;;;;;;;;;;4977737;28;20053;-62
2022/01/10 04:01:14;;;;;;;62.67;8.98;;;;;;;;;;4995456;28;20035;-62
2022/01/10 04:03:44;;;;;;;58.90;9.95;;;;;;;;;;4977481;28;20033;-62
2022/01/10 04:06:12;;;;;;;49.10;8.80;;;;;;;;;;4994837;28;20037;-62
2022/01/10 04:08:39;;;;;;;55.58;8.93;;;;;;;;;;4977055;28;20031;-62
2022/01/10 04:11:05;;;;;;;57.63;9.07;;;;;;;;;;4994649;28;20030;-62
2022/01/10 04:13:33;;;;;;;56.53;8.25;;;;;;;;;;4977722;28;20082;-63
2022/01/10 04:15:59;;;;;;;58.38;8.82;;;;;;;;;;4977294;28;20037;-62
2022/01/10 04:18:26;;;;;;;52.08;7.40;;;;;;;;;;4977453;28;20050;-62
2022/01/10 04:20:52;;;;;;;57.25;8.13;;;;;;;;;;4976968;28;20026;-62
2022/01/10 04:23:19;;;;;;;50.35;7.13;;;;;;;;;;4977431;28;20076;-62
2022/01/10 04:25:45;;;;;;;39.10;7.68;;;;;;;;;;4977267;28;20070;-62
2022/01/10 04:28:13;;;;;;;42.03;6.57;;;;;;;;;;4977029;28;20018;-62
2022/01/10 04:30:40;;;;;;;33.65;6.72;;;;;;;;;;4977273;28;20034;-62
2022/01/10 04:33:06;;;;;;;49.83;6.15;;;;;;;;;;4960945;28;20030;-62
2022/01/10 04:35:32;;;;;;;29.15;5.47;;;;;;;;;;4977202;28;20116;-62
2022/01/10 04:37:59;;;;;;;31.35;5.75;;;;;;;;;;4976406;28;20089;-62
2022/01/10 04:40:27;;;;;;;33.47;5.18;;;;;;;;;;4977099;28;20494;-62
2022/01/10 04:42:55;;;;;;;47.63;7.47;;;;;;;;;;4976451;28;20026;-62
2022/01/10 04:45:21;;;;;;;34.38;6.15;;;;;;;;;;4976968;28;20124;-62
2022/01/10 04:47:48;;;;;;;29.08;6.10;;;;;;;;;;4976546;28;20054;-62
2022/01/10 04:52:49;;;;;;;34.77;5.23;;;;;;;;;;4976425;28;20129;-62
2022/01/10 04:55:15;;;;;;;49.13;7.43;;;;;;;;;;4975969;28;20266;-62
2022/01/10 04:57:41;;;;;;;38.83;6.75;;;;;;;;;;4976368;28;20026;-62
2022/01/10 05:00:10;;;;;;;40.17;7.80;;;;;;;;;;4960803;28;20049;-62
2022/01/10 05:02:37;;;;;;;43.97;8.05;;;;;;;;;;4976671;28;20041;-62
2022/01/10 05:05:04;;;;;;;47.08;7.63;;;;;;;;;;4976118;28;20050;-62
2022/01/10 05:07:31;;;;;;;65.63;9.00;;;;;;;;;;4976800;28;20076;-62
2022/01/10 05:09:58;;;;;;;68.43;8.80;;;;;;;;;;4976130;28;20084;-62
2022/01/10 05:12:26;;;;;;;54.88;9.23;;;;;;;;;;4976262;28;20041;-62
2022/01/10 05:14:52;;;;;;;63.72;8.30;;;;;;;;;;4993478;28;20027;-63
2022/01/10 05:17:21;;;;;;;66.28;10.48;;;;;;;;;;4976465;28;20026;-62
2022/01/10 05:19:48;;;;;;;68.40;10.50;;;;;;;;;;4975682;28;20076;-62
2022/01/10 05:22:14;;;;;;;59.67;9.13;;;;;;;;;;4993559;28;20471;-62
2022/01/10 05:24:40;;;;;;;82.43;11.73;;;;;;;;;;4976043;28;20166;-62
2022/01/10 05:27:06;;;;;;;96.75;13.02;;;;;;;;;;4976049;28;20053;-62
2022/01/10 05:29:33;;;;;;;84.07;11.50;;;;;;;;;;4976247;28;20015;-62
2022/01/10 05:32:00;;;;;;;84.57;14.05;;;;;;;;;;4975765;28;20034;-62
2022/01/10 05:34:42;;;;;;;97.37;13.10;;;;;;;;;;4975775;28;20049;-63
2022/01/10 05:37:08;;;;;;;87.43;12.27;;;;;;;;;;4975238;28;20030;-63
2022/01/10 05:39:34;;;;;;;92.97;13.98;;;;;;;;;;4975945;28;20030;-62
2022/01/10 05:42:00;;;;;;;111.85;14.40;;;;;;;;;;4993182;28;20525;-62
2022/01/10 05:44:28;;;;;;;96.72;12.93;;;;;;;;;;4975720;28;20185;-63
2022/01/10 05:46:55;;;;;;;91.55;12.52;;;;;;;;;;4975419;28;20034;-63
2022/01/10 05:49:26;;;;;;;98.60;13.02;;;;;;;;;;4975309;28;20495;-62
2022/01/10 05:51:54;;;;;;;95.45;12.55;;;;;;;;;;4975413;28;20446;-62
2022/01/10 05:54:50;;;;;;;96.38;12.75;;;;;;;;;;4978183;28;20495;-62
2022/01/10 05:57:16;;;;;;;95.55;12.40;;;;;;;;;;4975494;28;20030;-62
2022/01/10 05:59:48;;;;;;;88.60;14.05;;;;;;;;;;4975490;28;20089;-63
2022/01/10 06:02:15;;;;;;;99.88;14.10;;;;;;;;;;4993006;28;20096;-62
2022/01/10 06:04:41;;;;;;;89.82;12.15;;;;;;;;;;4974773;28;20022;-62
2022/01/10 06:07:18;;;;;;;94.57;14.20;;;;;;;;;;4975531;28;20033;-62
2022/01/10 06:09:46;;;;;;;80.57;11.65;;;;;;;;;;4975372;28;20034;-62
2022/01/10 06:12:12;;;;;;;108.30;13.60;;;;;;;;;;4992937;28;20447;-63
2022/01/10 06:14:39;;;;;;;77.65;11.43;;;;;;;;;;4975479;28;20077;-62
2022/01/10 06:17:05;;;;;;;90.72;12.88;;;;;;;;;;4974923;28;20379;-63
2022/01/10 06:19:32;;;;;;;86.47;13.57;;;;;;;;;;4992026;28;20062;-63
2022/01/10 06:21:58;;;;;;;86.82;14.25;;;;;;;;;;4966554;28;20038;-63
2022/01/10 06:24:27;;;;;;;85.90;12.98;;;;;;;;;;4984580;28;20416;-63
2022/01/10 06:26:53;;;;;;;86.93;12.40;;;;;;;;;;4970711;28;20494;-63
2022/01/10 06:29:19;;;;;;;93.10;12.13;;;;;;;;;;4990332;28;20069;-63
2022/01/10 06:31:46;;;;;;;85.13;12.25;;;;;;;;;;4978147;28;20033;-63
2022/01/10 06:34:15;;;;;;;97.35;12.52;;;;;;;;;;4970240;28;20494;-62
2022/01/10 06:36:43;;;;;;;86.30;12.55;;;;;;;;;;4991354;28;20022;-62
2022/01/10 06:39:09;;;;;;;106.38;15.35;;;;;;;;;;4984070;28;20081;-62
2022/01/10 06:41:39;;;;;;;91.68;11.35;;;;;;;;;;4968942;28;20026;-63
2022/01/10 06:44:05;;;;;;;102.60;12.95;;;;;;;;;;4965117;28;20517;-62
2022/01/10 06:46:31;;;;;;;77.72;13.32;;;;;;;;;;4969333;28;20025;-63
2022/01/10 06:48:58;;;;;;;95.43;12.52;;;;;;;;;;4969783;28;20035;-63
2022/01/10 06:51:24;;;;;;;103.53;12.10;;;;;;;;;;4971998;28;20015;-63
2022/01/10 06:53:53;;;;;;;93.57;12.20;;;;;;;;;;4966096;28;20391;-62
2022/01/10 06:56:19;;;;;;;98.43;12.45;;;;;;;;;;4966950;28;20437;-62
2022/01/10 06:58:45;;;;;;;91.13;12.73;;;;;;;;;;4967438;28;20027;-62
2022/01/10 07:01:17;;;;;;;78.90;11.38;;;;;;;;;;4971171;28;20026;-63
2022/01/10 07:03:45;;;;;;;78.50;11.77;;;;;;;;;;4968072;28;20391;-62
2022/01/10 07:06:17;;;;;;;85.37;10.43;;;;;;;;;;4972056;28;20038;-62
2022/01/10 07:08:44;;;;;;;74.00;10.70;;;;;;;;;;4973895;28;20081;-62
2022/01/10 07:11:11;;;;;;;60.10;10.55;;;;;;;;;;4957608;28;20030;-63
2022/01/10 07:13:40;;;;;;;76.30;10.20;;;;;;;;;;4984479;28;20418;-63
2022/01/10 07:16:08;;;;;;;73.38;10.70;;;;;;;;;;4974135;28;20497;-63
2022/01/10 07:18:38;;;;;;;85.97;10.57;;;;;;;;;;4977326;28;20109;-62
2022/01/10 07:21:13;;;;;;;58.85;9.63;;;;;;;;;;4978673;28;20030;-62
2022/01/10 07:23:39;;;;;;;72.75;9.77;;;;;;;;;;4977284;28;20084;-62
2022/01/10 07:26:05;;;;;;;63.13;8.38;;;;;;;;;;4993961;28;20114;-62
2022/01/10 07:28:31;;;;;;;65.43;11.07;;;;;;;;;;4994327;28;20553;-63
2022/01/10 07:30:57;;;;;;;67.10;9.68;;;;;;;;;;4993205;28;20105;-62
2022/01/10 07:33:23;;;;;;;69.22;9.57;;;;;;;;;;4971937;28;20037;-63
2022/01/10 07:35:50;;;;;;;66.13;9.82;;;;;;;;;;4995758;28;20018;-63
2022/01/10 07:38:16;;;;;;;66.10;11.10;;;;;;;;;;4993471;28;21410;-63
2022/01/10 07:40:42;;;;;;;79.63;10.35;;;;;;;;;;4997657;28;20077;-63
2022/01/10 07:43:08;;;;;;;67.20;12.05;;;;;;;;;;4994539;28;20042;-63
2022/01/10 07:45:49;;;;;;;70.78;10.60;;;;;;;;;;4979239;28;20404;-63
2022/01/10 07:48:17;;;;;;;79.55;10.80;;;;;;;;;;4993198;28;20037;-63
2022/01/10 07:50:43;;;;;;;67.90;10.57;;;;;;;;;;5000535;28;20510;-63
2022/01/10 07:53:09;;;;;;;75.28;10.23;;;;;;;;;;4998787;28;20120;-63
2022/01/10 07:55:35;;;;;;;82.30;10.73;;;;;;;;;;4994716;28;20025;-63
2022/01/10 07:58:01;;;;;;;92.10;11.48;;;;;;;;;;4992303;28;20040;-63
2022/01/10 08:00:28;;;;;;;74.55;9.20;;;;;;;;;;4987910;28;20037;-63
2022/01/10 08:02:54;;;;;;;73.97;12.88;;;;;;;;;;4996687;28;20522;-63
2022/01/10 08:05:20;;;;;;;87.13;11.05;;;;;;;;;;5001968;28;20026;-63
2022/01/10 08:07:46;;;;;;;94.13;11.30;;;;;;;;;;4995569;28;20387;-63
2022/01/10 08:10:12;;;;;;;78.20;10.30;;;;;;;;;;4994327;28;20038;-65
2022/01/10 08:12:38;;;;;;;75.47;11.63;;;;;;;;;;5000846;28;20034;-63
2022/01/10 08:15:04;;;;;;;59.63;9.93;;;;;;;;;;4993537;28;20475;-63
2022/01/10 08:17:31;;;;;;;68.00;10.32;;;;;;;;;;4994043;28;20026;-63
2022/01/10 08:19:57;;;;;;;89.97;12.02;;;;;;;;;;4996613;28;20137;-63
2022/01/10 08:22:23;;;;;;;100.38;11.90;;;;;;;;;;4993043;28;20062;-63
2022/01/10 08:24:51;;;;;;;78.88;13.05;;;;;;;;;;4993811;28;20429;-63
2022/01/10 08:27:17;;;;;;;85.47;12.93;;;;;;;;;;5001513;28;20072;-63
2022/01/10 08:29:43;;;;;;;88.53;12.68;;;;;;;;;;4975492;28;20061;-63
2022/01/10 08:32:11;;;;;;;81.35;13.55;;;;;;;;;;4996092;28;20030;-63
2022/01/10 08:34:37;;;;;;;75.60;10.60;;;;;;;;;;4993355;28;20433;-63
2022/01/10 08:37:03;;;;;;;63.35;10.30;;;;;;;;;;4992179;28;20446;-63
2022/01/10 08:39:29;;;;;;;82.22;10.07;;;;;;;;;;4993555;28;20034;-63
2022/01/10 08:41:56;;;;;;;64.43;9.23;;;;;;;;;;4991007;28;20480;-63
2022/01/10 08:44:22;;;;;;;84.65;10.10;;;;;;;;;;4989106;28;20026;-63
2022/01/10 08:46:48;;;;;;;83.35;10.65;;;;;;;;;;4997574;28;20034;-63
2022/01/10 08:49:14;;;;;;;70.68;10.25;;;;;;;;;;5002838;28;20030;-63
2022/01/10 08:51:41;;;;;;;64.47;8.68;;;;;;;;;;4993087;28;20050;-63
2022/01/10 08:54:07;;;;;;;76.70;9.35;;;;;;;;;;5001166;28;20030;-63
2022/01/10 08:56:33;;;;;;;62.15;9.68;;;;;;;;;;4997395;28;20034;-63
2022/01/10 08:59:00;;;;;;;68.78;8.98;;;;;;;;;;4998851;28;20390;-63
2022/01/10 09:01:26;;;;;;;65.90;8.20;;;;;;;;;;4992583;28;20045;-63
2022/01/10 09:03:53;;;;;;;58.22;7.00;;;;;;;;;;4975182;28;20022;-63
2022/01/10 09:06:19;;;;;;;43.05;6.47;;;;;;;;;;4996965;28;20026;-63
2022/01/10 09:08:46;;;;;;;56.85;8.07;;;;;;;;;;4994380;28;20030;-63
2022/01/10 09:11:12;;;;;;;62.42;7.80;;;;;;;;;;5000738;28;20046;-63
2022/01/10 09:13:39;;;;;;;55.95;7.63;;;;;;;;;;4992721;28;20034;-63
2022/01/10 09:16:07;;;;;;;56.08;7.22;;;;;;;;;;4999684;28;20028;-63
2022/01/10 09:18:33;;;;;;;62.05;7.38;;;;;;;;;;4999282;28;20018;-63
2022/01/10 09:21:00;;;;;;;43.35;6.53;;;;;;;;;;4990362;28;20034;-63
2022/01/10 09:23:26;;;;;;;40.92;5.65;;;;;;;;;;5003774;28;20030;-63
2022/01/10 09:25:53;;;;;;;32.45;5.55;;;;;;;;;;4990970;28;20483;-63
2022/01/10 09:28:19;;;;;;;26.80;4.53;;;;;;;;;;4995407;28;20053;-63
2022/01/10 09:30:46;;;;;;;22.50;4.35;;;;;;;;;;4990411;28;20022;-63
2022/01/10 09:33:12;;;;;;;21.90;3.88;;;;;;;;;;4998303;28;20034;-63
2022/01/10 09:35:38;;;;;;;25.27;4.63;;;;;;;;;;4992130;28;20026;-63
2022/01/10 09:38:04;;;;;;;47.85;7.97;;;;;;;;;;4990935;28;20557;-63
2022/01/10 09:40:30;;;;;;;38.15;5.65;;;;;;;;;;4989054;28;20053;-63
2022/01/10 09:42:57;;;;;;;44.13;7.50;;;;;;;;;;4972915;28;20077;-63
2022/01/10 09:45:23;;;;;;;35.63;4.32;;;;;;;;;;4993452;28;20030;-63
2022/01/10 09:47:49;;;;;;;32.42;5.13;;;;;;;;;;4990341;28;20514;-63
2022/01/10 09:50:18;;;;;;;27.90;4.85;;;;;;;;;;4989730;28;20101;-63
2022/01/10 09:52:46;;;;;;;32.53;6.63;;;;;;;;;;4990450;28;20034;-63
2022/01/10 09:55:12;;;;;;;42.80;6.60;;;;;;;;;;4972262;28;20034;-63
2022/01/10 09:57:38;;;;;;;34.55;6.85;;;;;;;;;;4992421;28;20028;-63
2022/01/10 10:00:05;;;;;;;33.65;5.28;;;;;;;;;;4990879;28;20027;-63
2022/01/10 10:02:38;;;;;;;29.77;5.47;;;;;;;;;;4999593;28;20076;-63
2022/01/10 10:05:05;;;;;;;26.35;5.15;;;;;;;;;;4998188;28;20033;-63
2022/01/10 10:07:31;;;;;;;28.33;3.65;;;;;;;;;;4990578;28;20023;-63
2022/01/10 10:10:00;;;;;;;23.08;3.75;;;;;;;;;;4993229;28;20521;-63
2022/01/10 10:12:30;;;;;;;25.85;4.10;;;;;;;;;;4998239;28;20026;-63
2022/01/10 10:14:57;;;;;;;17.13;3.50;;;;;;;;;;4997024;28;20089;-63
2022/01/10 10:17:23;;;;;;;34.08;4.65;;;;;;;;;;4990669;28;20030;-63
2022/01/10 10:19:50;;;;;;;38.33;4.78;;;;;;;;;;4993839;28;20027;-63
2022/01/10 10:22:16;;;;;;;53.10;7.22;;;;;;;;;;4993149;28;20038;-63
2022/01/10 10:24:43;;;;;;;46.45;6.53;;;;;;;;;;4994565;28;20026;-63
2022/01/10 10:27:09;;;;;;;53.88;8.32;;;;;;;;;;4997187;28;20031;-63
2022/01/10 10:29:39;;;;;;;55.72;8.30;;;;;;;;;;4992381;28;20397;-63
2022/01/10 10:32:05;;;;;;;51.00;6.93;;;;;;;;;;5000224;28;20039;-63
2022/01/10 10:34:33;;;;;;;56.00;8.75;;;;;;;;;;4993932;28;20025;-63
2022/01/10 10:37:00;;;;;;;53.78;8.40;;;;;;;;;;4995991;28;20427;-63
2022/01/10 10:39:26;;;;;;;63.03;7.65;;;;;;;;;;4997662;28;20085;-63
2022/01/10 10:41:56;;;;;;;62.90;8.18;;;;;;;;;;4998191;28;20054;-63
2022/01/10 10:44:23;;;;;;;41.25;6.00;;;;;;;;;;4993200;28;20033;-63
2022/01/10 10:46:50;;;;;;;45.42;6.25;;;;;;;;;;4999309;28;20035;-63
2022/01/10 10:49:19;;;;;;;42.97;8.02;;;;;;;;;;4991572;28;20026;-63
2022/01/10 10:51:48;;;;;;;47.08;5.78;;;;;;;;;;4999976;28;20030;-63
2022/01/10 10:54:15;;;;;;;32.50;5.97;;;;;;;;;;5002071;28;20646;-63
2022/01/10 10:56:43;;;;;;;34.03;5.53;;;;;;;;;;4995442;28;20045;-63
2022/01/10 10:59:11;;;;;;;25.33;4.93;;;;;;;;;;5001348;28;20045;-63
2022/01/10 11:01:38;;;;;;;30.10;4.80;;;;;;;;;;5003460;28;20069;-63
2022/01/10 11:04:05;;;;;;;25.25;4.53;;;;;;;;;;5002583;28;20513;-63
2022/01/10 11:06:34;;;;;;;26.30;4.75;;;;;;;;;;4998351;28;20045;-63
2022/01/10 11:09:02;;;;;;;29.17;4.95;;;;;;;;;;4999278;28;20117;-63
2022/01/10 11:11:28;;;;;;;29.25;5.65;;;;;;;;;;5001571;28;20756;-63
2022/01/10 11:13:56;;;;;;;30.63;4.97;;;;;;;;;;4998799;28;20386;-63
2022/01/10 11:16:22;;;;;;;25.45;4.45;;;;;;;;;;4991047;28;20034;-63
2022/01/10 11:18:49;;;;;;;31.98;4.13;;;;;;;;;;4994469;28;20386;-63
2022/01/10 11:21:15;;;;;;;22.95;4.25;;;;;;;;;;4993437;28;20525;-63
2022/01/10 11:23:44;;;;;;;20.00;3.63;;;;;;;;;;4995155;28;20026;-63
2022/01/10 11:26:12;;;;;;;24.33;4.10;;;;;;;;;;4979019;28;20030;-63
2022/01/10 11:28:51;;;;;;;27.40;4.38;;;;;;;;;;5001261;28;20057;-63
2022/01/10 11:31:24;;;;;;;26.85;5.50;;;;;;;;;;4997965;28;20058;-63
2022/01/10 11:33:51;;;;;;;27.42;4.07;;;;;;;;;;4992073;28;20034;-63
2022/01/10 11:36:20;;;;;;;20.00;4.05;;;;;;;;;;4985044;28;20023;-71
2022/01/10 11:38:49;;;;;;;27.73;4.05;;;;;;;;;;4991968;28;20116;-63
2022/01/10 11:41:33;;;;;;;17.17;3.35;;;;;;;;;;4994635;28;20546;-65
2022/01/10 11:44:08;;;;;;;16.02;2.80;;;;;;;;;;4995861;28;20039;-63
2022/01/10 11:46:37;;;;;;;14.73;3.17;;;;;;;;;;4994466;28;20355;-64
2022/01/10 11:49:09;;;;;;;17.80;3.10;;;;;;;;;;4994679;28;20030;-64
2022/01/10 11:51:37;;;;;;;17.50;3.00;;;;;;;;;;5003677;28;20030;-64
2022/01/10 11:54:03;;;;;;;8.05;1.98;;;;;;;;;;4999608;28;20030;-64
2022/01/10 11:56:31;;;;;;;17.50;2.85;;;;;;;;;;4995304;28;20069;-68
2022/01/10 11:59:07;;;;;;;16.20;3.05;;;;;;;;;;5003555;28;20258;-67
2022/01/10 12:01:37;;;;;;;25.38;4.03;;;;;;;;;;4995414;28;20018;-67
2022/01/10 12:04:03;;;;;;;22.05;3.45;;;;;;;;;;4993762;28;20034;-67
2022/01/10 12:06:30;;;;;;;37.30;4.05;;;;;;;;;;4994050;28;20045;-67
2022/01/10 12:08:59;;;;;;;23.35;3.90;;;;;;;;;;4990521;28;20364;-67
2022/01/10 12:11:27;;;;;;;20.98;4.80;;;;;;;;;;4996883;28;20022;-67
2022/01/10 12:13:54;;;;;;;23.42;5.75;;;;;;;;;;4990629;28;20030;-68
2022/01/10 12:16:21;;;;;;;28.95;5.25;;;;;;;;;;4993506;28;20027;-68
2022/01/10 12:18:48;;;;;;;22.13;3.75;;;;;;;;;;4995036;28;20039;-68
2022/01/10 12:21:14;;;;;;;26.83;5.10;;;;;;;;;;4992882;28;20056;-67
2022/01/10 12:23:41;;;;;;;38.67;5.28;;;;;;;;;;4995315;28;20073;-67
2022/01/10 12:26:07;;;;;;;21.92;4.03;;;;;;;;;;4994927;28;20127;-67
2022/01/10 12:28:33;;;;;;;23.25;3.80;;;;;;;;;;4994646;28;20169;-67
2022/01/10 12:31:02;;;;;;;21.05;3.53;;;;;;;;;;4994919;28;20030;-68
2022/01/10 12:33:29;;;;;;;22.42;4.53;;;;;;;;;;4994234;28;20397;-67
2022/01/10 12:35:55;;;;;;;27.23;3.63;;;;;;;;;;4993922;28;20031;-67
2022/01/10 12:38:22;;;;;;;34.10;4.35;;;;;;;;;;4979062;28;20081;-67
2022/01/10 12:40:52;;;;;;;28.67;4.85;;;;;;;;;;4993385;28;20030;-67
2022/01/10 12:43:18;;;;;;;36.72;5.50;;;;;;;;;;4992894;28;20375;-67
2022/01/10 12:45:45;;;;;;;22.00;4.32;;;;;;;;;;4994346;28;20549;-67
2022/01/10 12:48:12;;;;;;;19.05;3.85;;;;;;;;;;4993080;28;20026;-67
2022/01/10 12:50:38;;;;;;;22.13;3.95;;;;;;;;;;4996501;28;20036;-68
2022/01/10 12:53:05;;;;;;;14.80;3.20;;;;;;;;;;4997498;28;20030;-67
2022/01/10 12:55:31;;;;;;;8.88;2.35;;;;;;;;;;4989500;28;20549;-67
2022/01/10 12:57:57;;;;;;;7.95;1.95;;;;;;;;;;4993769;28;20049;-67
2022/01/10 13:00:24;;;;;;;11.88;2.55;;;;;;;;;;4990276;28;20041;-67
2022/01/10 13:02:50;;;;;;;13.90;2.40;;;;;;;;;;4989429;28;20022;-67
2022/01/10 13:05:17;;;;;;;5.65;1.77;;;;;;;;;;5000326;28;20034;-68
2022/01/10 13:07:44;;;;;;;8.57;1.88;;;;;;;;;;4993690;28;20122;-68
2022/01/10 13:10:18;;;;;;;13.02;3.25;;;;;;;;;;4994946;28;20487;-67
2022/01/10 13:12:47;;;;;;;10.18;3.00;;;;;;;;;;4994633;28;20117;-67
2022/01/10 13:15:17;;;;;;;13.07;2.50;;;;;;;;;;4992129;28;20057;-67
2022/01/10 13:17:56;;;;;;;13.30;3.33;;;;;;;;;;4999151;28;20128;-67
2022/01/10 13:20:24;;;;;;;7.45;2.33;;;;;;;;;;4981585;28;20414;-67
2022/01/10 13:22:51;;;;;;;11.52;2.67;;;;;;;;;;4997473;28;20109;-67
2022/01/10 13:25:18;;;;;;;13.25;2.60;;;;;;;;;;4996435;28;20037;-67
2022/01/10 13:27:52;;;;;;;15.90;2.65;;;;;;;;;;4999483;28;20030;-67
2022/01/10 13:30:24;;;;;;;12.43;2.20;;;;;;;;;;5003095;28;20034;-68
2022/01/10 13:32:52;;;;;;;13.57;2.53;;;;;;;;;;4992409;28;20223;-68
2022/01/10 13:35:19;;;;;;;12.07;2.55;;;;;;;;;;4979981;28;20041;-68
2022/01/10 13:37:46;;;;;;;11.70;2.35;;;;;;;;;;4992870;28;20046;-67
2022/01/10 13:40:22;;;;;;;14.27;2.72;;;;;;;;;;4991503;28;20018;-67
2022/01/10 13:42:50;;;;;;;15.00;3.25;;;;;;;;;;4995771;28;20109;-67
2022/01/10 13:45:40;;;;;;;20.80;3.55;;;;;;;;;;4991984;28;20028;-67
2022/01/10 13:48:07;;;;;;;14.93;3.30;;;;;;;;;;4977943;28;20046;-67
2022/01/10 13:50:34;;;;;;;17.25;4.15;;;;;;;;;;4994373;28;20368;-67
2022/01/10 13:53:04;;;;;;;17.20;4.15;;;;;;;;;;4976362;28;20468;-67
2022/01/10 13:55:30;;;;;;;24.02;4.40;;;;;;;;;;4995182;28;20077;-67
2022/01/10 13:57:57;;;;;;;19.75;3.53;;;;;;;;;;4994791;28;20034;-67
2022/01/10 14:00:23;;;;;;;19.88;3.13;;;;;;;;;;4995655;28;20052;-67
2022/01/10 14:02:50;;;;;;;16.60;3.78;;;;;;;;;;4992333;28;20030;-67
2022/01/10 14:05:25;;;;;;;13.73;2.28;;;;;;;;;;4989432;28;20438;-67
2022/01/10 14:07:52;;;;;;;13.02;3.15;;;;;;;;;;4990447;28;21014;-67
2022/01/10 14:10:18;;;;;;;11.80;3.67;;;;;;;;;;4999015;28;20113;-67
2022/01/10 14:12:44;;;;;;;11.93;2.53;;;;;;;;;;4994508;28;20034;-67
2022/01/10 14:15:11;;;;;;;13.82;4.00;;;;;;;;;;4996771;28;20026;-67
2022/01/10 14:17:37;;;;;;;11.73;3.47;;;;;;;;;;4993240;28;20037;-67
2022/01/10 14:20:05;;;;;;;17.83;3.65;;;;;;;;;;4994715;28;20026;-67
2022/01/10 14:22:31;;;;;;;10.77;2.10;;;;;;;;;;4991875;28;21370;-67
2022/01/10 14:24:57;;;;;;;4.82;2.30;;;;;;;;;;4991157;28;20032;-67
2022/01/10 14:27:24;;;;;;;8.27;2.88;;;;;;;;;;4990917;28;20438;-67
2022/01/10 14:29:50;;;;;;;15.35;4.22;;;;;;;;;;4991757;28;20031;-67
2022/01/10 14:32:17;;;;;;;17.05;3.53;;;;;;;;;;4991943;28;20073;-68
2022/01/10 14:34:43;;;;;;;16.00;3.53;;;;;;;;;;4984715;28;20398;-68
2022/01/10 14:37:09;;;;;;;14.90;4.03;;;;;;;;;;4994421;28;20053;-68
2022/01/10 14:39:35;;;;;;;9.93;2.80;;;;;;;;;;4991954;28;20049;-68